createdAt,value
2018-11-29T00:00:32.147Z,1010.03
2018-11-29T00:01:32.163Z,1010.01
2018-11-29T00:02:32.188Z,1010.02
2018-11-29T00:03:32.217Z,1010.01
2018-11-29T00:04:32.236Z,1009.96
2018-11-29T00:05:32.209Z,1009.91
2018-11-29T00:06:32.226Z,1009.95
2018-11-29T00:07:32.240Z,1009.90
2018-11-29T00:08:32.254Z,1009.84
2018-11-29T00:09:32.265Z,1009.83
2018-11-29T00:10:32.282Z,1009.81
2018-11-29T00:11:32.293Z,1009.84
2018-11-29T00:12:32.314Z,1009.85
2018-11-29T00:13:32.323Z,1009.87
2018-11-29T00:14:32.338Z,1009.87
2018-11-29T00:15:32.352Z,1009.94
2018-11-29T00:16:32.364Z,1009.93
2018-11-29T00:17:32.379Z,1009.87
2018-11-29T00:18:32.389Z,1009.89
2018-11-29T00:19:32.404Z,1009.88
2018-11-29T00:20:32.416Z,1009.85
2018-11-29T00:21:32.434Z,1009.84
2018-11-29T00:22:32.448Z,1009.77
2018-11-29T00:23:32.460Z,1009.78
2018-11-29T00:24:32.473Z,1009.83
2018-11-29T00:25:32.487Z,1009.77
2018-11-29T00:26:32.501Z,1009.78
2018-11-29T00:27:32.521Z,1009.80
2018-11-29T00:28:32.531Z,1009.81
2018-11-29T00:29:32.550Z,1009.79
2018-11-29T00:30:32.559Z,1009.77
2018-11-29T00:31:32.570Z,1009.75
2018-11-29T00:32:32.583Z,1009.71
2018-11-29T00:33:32.605Z,1009.71
2018-11-29T00:34:32.613Z,1009.68
2018-11-29T00:35:32.630Z,1009.69
2018-11-29T00:36:32.642Z,1009.71
2018-11-29T00:37:32.654Z,1009.76
2018-11-29T00:38:32.667Z,1009.78
2018-11-29T00:39:32.685Z,1009.76
2018-11-29T00:40:32.696Z,1009.77
2018-11-29T00:41:32.709Z,1009.81
2018-11-29T00:42:32.725Z,1009.82
2018-11-29T00:43:32.739Z,1009.85
2018-11-29T00:44:32.785Z,1009.84
2018-11-29T00:45:32.768Z,1009.85
2018-11-29T00:46:32.799Z,1009.81
2018-11-29T00:47:32.794Z,1009.85
2018-11-29T00:48:32.808Z,1009.85
2018-11-29T00:49:32.825Z,1009.86
2018-11-29T00:50:32.838Z,1009.90
2018-11-29T00:51:32.856Z,1009.92
2018-11-29T00:52:32.864Z,1009.91
2018-11-29T00:53:32.879Z,1009.93
2018-11-29T00:54:32.895Z,1009.96
2018-11-29T00:55:32.908Z,1009.96
2018-11-29T00:56:32.927Z,1009.96
2018-11-29T00:57:32.939Z,1009.96
2018-11-29T00:58:32.950Z,1009.88
2018-11-29T00:59:33.007Z,1009.89
2018-11-29T01:00:32.985Z,1009.84
2018-11-29T01:01:32.992Z,1009.74
2018-11-29T01:02:33.007Z,1009.78
2018-11-29T01:03:33.018Z,1009.80
2018-11-29T01:04:33.037Z,1009.85
2018-11-29T01:05:33.067Z,1009.89
2018-11-29T01:06:33.060Z,1009.96
2018-11-29T01:07:33.074Z,1009.93
2018-11-29T01:08:33.089Z,1010.01
2018-11-29T01:09:33.104Z,1010.02
2018-11-29T01:10:33.115Z,1009.98
2018-11-29T01:11:33.131Z,1009.96
2018-11-29T01:12:33.154Z,1010.01
2018-11-29T01:13:33.159Z,1010.06
2018-11-29T01:14:33.173Z,1010.08
2018-11-29T01:15:33.194Z,1010.07
2018-11-29T01:16:33.200Z,1010.04
2018-11-29T01:17:33.222Z,1009.99
2018-11-29T01:18:33.233Z,1010.01
2018-11-29T01:19:33.242Z,1010.02
2018-11-29T01:20:33.258Z,1009.97
2018-11-29T01:21:33.279Z,1009.96
2018-11-29T01:22:33.287Z,1009.91
2018-11-29T01:23:33.301Z,1009.93
2018-11-29T01:24:33.315Z,1009.90
2018-11-29T01:25:33.330Z,1009.93
2018-11-29T01:26:33.344Z,1009.88
2018-11-29T01:27:33.358Z,1009.87
2018-11-29T01:28:33.372Z,1009.83
2018-11-29T01:29:33.383Z,1009.86
2018-11-29T01:30:33.405Z,1009.76
2018-11-29T01:31:33.414Z,1009.79
2018-11-29T01:32:33.429Z,1009.81
2018-11-29T01:33:33.445Z,1009.85
2018-11-29T01:34:33.464Z,1009.84
2018-11-29T01:35:33.468Z,1009.85
2018-11-29T01:36:33.486Z,1009.87
2018-11-29T01:37:33.499Z,1009.84
2018-11-29T01:38:33.517Z,1009.85
2018-11-29T01:39:33.537Z,1009.92
2018-11-29T01:40:33.547Z,1009.87
2018-11-29T01:41:33.555Z,1009.83
2018-11-29T01:42:33.571Z,1009.90
2018-11-29T01:43:33.582Z,1009.87
2018-11-29T01:44:33.601Z,1009.96
2018-11-29T01:45:33.658Z,1009.96
2018-11-29T01:46:33.626Z,1009.90
2018-11-29T01:47:33.641Z,1009.93
2018-11-29T01:48:33.653Z,1009.88
2018-11-29T01:49:33.669Z,1009.84
2018-11-29T01:50:33.681Z,1009.86
2018-11-29T01:51:33.709Z,1009.86
2018-11-29T01:52:33.712Z,1009.81
2018-11-29T01:53:33.732Z,1009.88
2018-11-29T01:54:33.748Z,1009.83
2018-11-29T01:55:33.763Z,1009.79
2018-11-29T01:56:33.773Z,1009.81
2018-11-29T01:57:33.787Z,1009.83
2018-11-29T01:58:33.800Z,1009.88
2018-11-29T01:59:33.813Z,1009.85
2018-11-29T02:00:33.829Z,1009.83
2018-11-29T02:01:33.839Z,1009.76
2018-11-29T02:02:33.859Z,1009.81
2018-11-29T02:03:33.898Z,1009.81
2018-11-29T02:04:33.883Z,1009.78
2018-11-29T02:05:33.896Z,1009.86
2018-11-29T02:06:33.917Z,1009.79
2018-11-29T02:07:33.925Z,1009.80
2018-11-29T02:08:33.961Z,1009.82
2018-11-29T02:09:33.966Z,1009.83
2018-11-29T02:10:33.967Z,1009.88
2018-11-29T02:11:34.000Z,1009.81
2018-11-29T02:12:34.004Z,1009.80
2018-11-29T02:13:34.013Z,1009.82
2018-11-29T02:14:34.050Z,1009.78
2018-11-29T02:15:34.044Z,1009.75
2018-11-29T02:16:34.056Z,1009.74
2018-11-29T02:17:34.071Z,1009.76
2018-11-29T02:18:34.083Z,1009.74
2018-11-29T02:19:34.094Z,1009.74
2018-11-29T02:20:34.112Z,1009.73
2018-11-29T02:21:34.126Z,1009.64
2018-11-29T02:22:34.149Z,1009.65
2018-11-29T02:23:34.152Z,1009.68
2018-11-29T02:24:34.170Z,1009.59
2018-11-29T02:25:34.186Z,1009.63
2018-11-29T02:26:34.198Z,1009.58
2018-11-29T02:27:34.218Z,1009.62
2018-11-29T02:28:34.225Z,1009.60
2018-11-29T02:29:34.238Z,1009.64
2018-11-29T02:30:34.253Z,1009.66
2018-11-29T02:31:34.265Z,1009.69
2018-11-29T02:32:34.279Z,1009.67
2018-11-29T02:33:34.300Z,1009.62
2018-11-29T02:34:34.309Z,1009.62
2018-11-29T02:35:34.322Z,1009.63
2018-11-29T02:36:34.349Z,1009.65
2018-11-29T02:37:34.357Z,1009.64
2018-11-29T02:38:34.368Z,1009.65
2018-11-29T02:39:34.385Z,1009.62
2018-11-29T02:40:34.394Z,1009.55
2018-11-29T02:41:34.411Z,1009.57
2018-11-29T02:42:34.424Z,1009.59
2018-11-29T02:43:34.436Z,1009.56
2018-11-29T02:44:34.450Z,1009.56
2018-11-29T02:45:34.465Z,1009.55
2018-11-29T02:46:34.497Z,1009.52
2018-11-29T02:47:34.492Z,1009.57
2018-11-29T02:48:34.512Z,1009.56
2018-11-29T02:49:34.527Z,1009.51
2018-11-29T02:50:34.539Z,1009.48
2018-11-29T02:51:34.553Z,1009.49
2018-11-29T02:52:34.562Z,1009.49
2018-11-29T02:53:34.577Z,1009.44
2018-11-29T02:54:34.596Z,1009.48
2018-11-29T02:55:34.611Z,1009.45
2018-11-29T02:56:34.634Z,1009.45
2018-11-29T02:57:34.639Z,1009.46
2018-11-29T02:58:34.650Z,1009.41
2018-11-29T02:59:34.663Z,1009.45
2018-11-29T03:00:34.688Z,1009.43
2018-11-29T03:01:34.691Z,1009.50
2018-11-29T03:02:34.717Z,1009.50
2018-11-29T03:03:34.723Z,1009.49
2018-11-29T03:04:34.744Z,1009.46
2018-11-29T03:05:34.755Z,1009.46
2018-11-29T03:06:34.764Z,1009.42
2018-11-29T03:07:34.776Z,1009.41
2018-11-29T03:08:34.796Z,1009.41
2018-11-29T03:39:10.185Z,1009.27
2018-11-29T03:40:10.166Z,1009.26
2018-11-29T03:42:02.069Z,1009.27
2018-11-29T03:43:02.068Z,1009.28
2018-11-29T03:44:53.992Z,1009.26
2018-11-29T03:45:53.972Z,1009.25
2018-11-29T03:47:45.875Z,1009.26
2018-11-29T03:48:45.885Z,1009.24
2018-11-29T03:50:37.809Z,1009.23
2018-11-29T03:51:37.793Z,1009.26
2018-11-29T03:53:29.699Z,1009.23
2018-11-29T03:54:29.698Z,1009.27
2018-11-29T03:56:21.667Z,1009.23
2018-11-29T03:57:21.647Z,1009.34
2018-11-29T03:59:13.573Z,1009.26
2018-11-29T04:00:13.552Z,1009.23
2018-11-29T04:02:05.462Z,1009.25
2018-11-29T04:03:05.470Z,1009.19
2018-11-29T04:04:57.400Z,1009.20
2018-11-29T04:05:57.385Z,1009.19
2018-11-29T04:07:49.796Z,1009.20
2018-11-29T04:08:49.803Z,1009.18
2018-11-29T04:10:41.741Z,1009.18
2018-11-29T04:11:41.732Z,1009.17
2018-11-29T04:13:33.636Z,1009.17
2018-11-29T04:14:33.692Z,1009.20
2018-11-29T04:16:25.578Z,1009.16
2018-11-29T04:17:25.576Z,1009.20
2018-11-29T04:19:17.501Z,1009.16
2018-11-29T04:20:17.492Z,1009.12
2018-11-29T04:22:09.413Z,1009.08
2018-11-29T04:23:09.413Z,1009.00
2018-11-29T04:25:01.469Z,1009.05
2018-11-29T04:26:01.337Z,1009.09
2018-11-29T04:27:53.243Z,1009.11
2018-11-29T04:28:53.250Z,1009.10
2018-11-29T04:30:45.179Z,1009.09
2018-11-29T04:31:45.170Z,1009.11
2018-11-29T04:33:37.087Z,1009.13
2018-11-29T04:34:37.092Z,1009.15
2018-11-29T04:36:29.020Z,1009.16
2018-11-29T04:37:29.012Z,1009.15
2018-11-29T04:39:20.942Z,1009.15
2018-11-29T04:40:20.934Z,1009.14
2018-11-29T04:42:12.847Z,1009.09
2018-11-29T04:43:12.856Z,1009.03
2018-11-29T04:45:04.810Z,1009.02
2018-11-29T04:46:04.802Z,1009.01
2018-11-29T04:47:57.219Z,1009.03
2018-11-29T04:48:57.228Z,1008.96
2018-11-29T04:50:49.853Z,1009.07
2018-11-29T04:51:49.143Z,1009.07
2018-11-29T04:53:41.083Z,1009.08
2018-11-29T04:54:41.090Z,1009.09
2018-11-29T04:56:33.053Z,1009.06
2018-11-29T04:57:33.020Z,1009.06
2018-11-29T04:59:25.464Z,1008.97
2018-11-29T05:00:25.448Z,1008.97
2018-11-29T05:02:17.387Z,1008.96
2018-11-29T05:03:17.397Z,1008.87
2018-11-29T05:05:09.322Z,1008.86
2018-11-29T05:06:09.317Z,1008.80
2018-11-29T05:08:01.224Z,1008.74
2018-11-29T05:09:01.238Z,1008.76
2018-11-29T05:10:53.167Z,1008.78
2018-11-29T05:11:53.152Z,1008.73
2018-11-29T05:13:45.090Z,1008.73
2018-11-29T05:14:45.097Z,1008.69
2018-11-29T05:16:37.035Z,1008.65
2018-11-29T05:17:37.025Z,1008.68
2018-11-29T05:19:29.442Z,1008.72
2018-11-29T05:20:29.431Z,1008.69
2018-11-29T05:22:21.356Z,1008.73
2018-11-29T05:23:21.366Z,1008.64
2018-11-29T05:25:13.324Z,1008.63
2018-11-29T05:26:13.315Z,1008.66
2018-11-29T05:28:05.233Z,1008.68
2018-11-29T05:29:05.247Z,1008.65
2018-11-29T05:30:57.191Z,1008.65
2018-11-29T05:31:57.179Z,1008.64
2018-11-29T05:33:49.121Z,1008.66
2018-11-29T05:34:49.123Z,1008.56
2018-11-29T05:36:41.065Z,1008.57
2018-11-29T05:37:41.050Z,1008.58
2018-11-29T05:39:33.017Z,1008.54
2018-11-29T05:40:32.983Z,1008.49
2018-11-29T05:42:24.899Z,1008.51
2018-11-29T05:43:24.915Z,1008.47
2018-11-29T05:45:16.835Z,1008.46
2018-11-29T05:46:16.819Z,1008.51
2018-11-29T05:48:08.781Z,1008.45
2018-11-29T05:49:08.786Z,1008.43
2018-11-29T05:51:00.723Z,1008.45
2018-11-29T05:52:00.706Z,1008.44
2018-11-29T05:53:52.614Z,1008.44
2018-11-29T05:54:52.621Z,1008.40
2018-11-29T05:56:44.553Z,1008.41
2018-11-29T05:57:44.542Z,1008.41
2018-11-29T05:59:36.488Z,1008.40
2018-11-29T06:00:36.460Z,1008.44
2018-11-29T06:02:28.370Z,1008.45
2018-11-29T06:03:28.378Z,1008.43
2018-11-29T06:05:20.310Z,1008.45
2018-11-29T06:06:20.322Z,1008.40
2018-11-29T06:08:12.223Z,1008.51
2018-11-29T06:09:12.219Z,1008.43
2018-11-29T06:11:04.170Z,1008.47
2018-11-29T06:12:04.151Z,1008.47
2018-11-29T06:13:56.121Z,1008.41
2018-11-29T06:14:56.071Z,1008.39
2018-11-29T06:16:47.997Z,1008.42
2018-11-29T06:17:47.988Z,1008.33
2018-11-29T06:19:39.904Z,1008.34
2018-11-29T06:20:39.906Z,1008.28
2018-11-29T06:22:31.837Z,1008.30
2018-11-29T06:23:31.822Z,1008.29
2018-11-29T06:25:23.751Z,1008.30
2018-11-29T06:26:23.739Z,1008.20
2018-11-29T06:28:15.658Z,1008.26
2018-11-29T06:29:15.666Z,1008.23
2018-11-29T06:31:07.602Z,1008.30
2018-11-29T06:32:07.592Z,1008.30
2018-11-29T06:33:59.507Z,1008.23
2018-11-29T06:34:59.518Z,1008.32
2018-11-29T06:36:51.447Z,1008.25
2018-11-29T06:37:51.431Z,1008.22
2018-11-29T06:39:43.352Z,1008.29
2018-11-29T06:40:43.358Z,1008.25
2018-11-29T06:42:35.291Z,1008.26
2018-11-29T06:43:35.273Z,1008.27
2018-11-29T06:45:27.211Z,1008.22
2018-11-29T06:46:27.255Z,1008.24
2018-11-29T06:48:19.162Z,1008.24
2018-11-29T06:49:19.174Z,1008.27
2018-11-29T06:51:11.054Z,1008.20
2018-11-29T06:52:11.040Z,1008.28
2018-11-29T06:54:02.979Z,1008.20
2018-11-29T06:55:02.958Z,1008.13
2018-11-29T06:56:54.930Z,1008.12
2018-11-29T06:57:54.904Z,1008.05
2018-11-29T06:59:47.007Z,1008.10
2018-11-29T07:00:47.018Z,1008.03
2018-11-29T07:02:38.963Z,1008.05
2018-11-29T07:03:38.947Z,1007.93
2018-11-29T07:05:30.881Z,1007.96
2018-11-29T07:06:30.871Z,1007.94
2018-11-29T07:08:22.806Z,1007.94
2018-11-29T07:09:22.807Z,1007.90
2018-11-29T07:11:14.755Z,1007.89
2018-11-29T07:12:14.721Z,1007.89
2018-11-29T07:14:06.629Z,1007.98
2018-11-29T07:15:06.635Z,1007.95
2018-11-29T07:16:58.585Z,1007.93
2018-11-29T07:17:58.558Z,1007.92
2018-11-29T07:19:50.461Z,1007.81
2018-11-29T07:20:50.469Z,1007.89
2018-11-29T07:22:42.407Z,1007.90
2018-11-29T07:23:42.394Z,1007.91
2018-11-29T07:25:34.343Z,1007.92
2018-11-29T07:26:34.333Z,1007.87
2018-11-29T07:28:26.251Z,1007.93
2018-11-29T07:29:26.271Z,1007.90
2018-11-29T07:31:18.162Z,1007.99
2018-11-29T07:32:18.152Z,1007.97
2018-11-29T07:34:10.074Z,1007.94
2018-11-29T07:35:10.070Z,1007.95
2018-11-29T07:37:01.996Z,1007.96
2018-11-29T07:38:01.983Z,1007.97
2018-11-29T07:39:53.885Z,1007.93
2018-11-29T07:40:53.914Z,1007.91
2018-11-29T07:41:53.911Z,1007.96
2018-11-29T07:42:53.926Z,1007.95
2018-11-29T07:43:53.998Z,1007.91
2018-11-29T07:44:53.947Z,1007.92
2018-11-29T07:45:53.962Z,1007.93
2018-11-29T07:46:53.988Z,1007.86
2018-11-29T07:47:53.999Z,1007.86
2018-11-29T07:48:54.004Z,1007.88
2018-11-29T07:49:54.018Z,1007.82
2018-11-29T07:50:54.031Z,1007.89
2018-11-29T07:51:54.081Z,1007.84
2018-11-29T07:52:54.089Z,1007.81
2018-11-29T07:53:54.071Z,1007.79
2018-11-29T07:54:54.084Z,1007.76
2018-11-29T07:55:54.102Z,1007.80
2018-11-29T07:56:54.111Z,1007.80
2018-11-29T07:57:54.145Z,1007.83
2018-11-29T07:58:54.140Z,1007.85
2018-11-29T07:59:54.187Z,1007.79
2018-11-29T08:00:54.182Z,1007.83
2018-11-29T08:01:54.212Z,1007.82
2018-11-29T08:02:54.203Z,1007.79
2018-11-29T08:03:54.245Z,1007.74
2018-11-29T08:04:54.220Z,1007.76
2018-11-29T08:05:54.235Z,1007.77
2018-11-29T08:06:54.252Z,1007.71
2018-11-29T08:07:54.260Z,1007.76
2018-11-29T08:08:54.303Z,1007.75
2018-11-29T08:09:54.291Z,1007.74
2018-11-29T08:10:54.335Z,1007.68
2018-11-29T08:11:54.319Z,1007.79
2018-11-29T08:12:54.332Z,1007.79
2018-11-29T08:13:54.347Z,1007.76
2018-11-29T08:14:54.359Z,1007.69
2018-11-29T08:15:54.395Z,1007.72
2018-11-29T08:16:54.384Z,1007.75
2018-11-29T08:17:54.400Z,1007.77
2018-11-29T08:18:54.418Z,1007.79
2018-11-29T08:19:54.449Z,1007.79
2018-11-29T08:20:54.443Z,1007.82
2018-11-29T08:21:54.465Z,1007.83
2018-11-29T08:22:54.466Z,1007.91
2018-11-29T08:23:54.490Z,1007.87
2018-11-29T08:24:54.537Z,1007.88
2018-11-29T08:25:54.510Z,1007.90
2018-11-29T08:26:54.522Z,1007.91
2018-11-29T08:27:54.538Z,1007.87
2018-11-29T08:28:54.564Z,1008.01
2018-11-29T08:29:54.563Z,1008.02
2018-11-29T08:30:54.600Z,1008.13
2018-11-29T08:31:54.654Z,1008.01
2018-11-29T08:32:54.606Z,1008.10
2018-11-29T08:33:54.622Z,1008.10
2018-11-29T08:34:54.637Z,1008.21
2018-11-29T08:35:54.653Z,1008.21
2018-11-29T08:36:54.675Z,1008.26
2018-11-29T08:37:54.678Z,1008.22
2018-11-29T08:38:54.688Z,1008.23
2018-11-29T08:39:54.706Z,1008.22
2018-11-29T08:40:54.722Z,1008.25
2018-11-29T08:41:54.784Z,1008.21
2018-11-29T08:42:54.751Z,1008.26
2018-11-29T08:43:54.765Z,1008.21
2018-11-29T08:44:54.826Z,1008.22
2018-11-29T08:45:54.792Z,1008.21
2018-11-29T08:46:54.805Z,1008.10
2018-11-29T08:47:54.821Z,1008.13
2018-11-29T08:48:54.843Z,1008.20
2018-11-29T08:49:54.847Z,1008.18
2018-11-29T08:50:54.882Z,1008.16
2018-11-29T08:51:54.874Z,1008.21
2018-11-29T08:52:54.884Z,1008.15
2018-11-29T08:53:54.905Z,1008.11
2018-11-29T08:56:44.458Z,1008.12
